Sv.knyaz Vladimir — UBKI2 — position and weather

sailwx.info

Track history (hours):
 
Tides and Currents Weather Stations Pressure Air Temp Water Temp Dewpoint Dewpoint Depression Visibility Wind Speed Wind Dir Waves Ship Positions

Sv.knyaz Vladimir

Last reported at 2017-Sep-25 12:23 UTC. Time now 2017-Sep-26 16:45 UTC.
Position N 45°29' E 036°37'.

Length 128 m; draft 3.7 m.

Type: Cargo ship. MMSI: 273350360.

Date/timePositionNaut miles runAvg speedWind from/ knotsBaromVisibWave heightAir tempDewpointWater temp
2017-Sep-25 12:23N 45°29' E 036°37'2 4.6
2017-Sep-25 12:00N 45°30' E 036°39'4 7.3
2017-Sep-25 11:27N 45°33' E 036°42'3 7.5
2017-Sep-25 11:00N 45°36' E 036°46'  
2017-Sep-20 02:02N 45°33' E 036°48'0 6.7
2017-Sep-20 01:59N 45°33' E 036°48'4 6.5
2017-Sep-20 01:26N 45°30' E 036°44'3 6.7
2017-Sep-20 01:00N 45°28' E 036°42'3 7.0
2017-Sep-20 00:30N 45°24' E 036°41'3 7.0
2017-Sep-20 00:00N 45°21' E 036°39'3 7.0
2017-Sep-19 23:30N 45°20' E 036°34'4 7.3
2017-Sep-19 23:00N 45°18' E 036°30'5 5.7
2017-Sep-19 22:09N 45°13' E 036°29'1 5.7
2017-Sep-19 22:00N 45°13' E 036°29'2 4.3
2017-Sep-19 21:31N 45°11' E 036°30'0 0.2
2017-Sep-19 20:57N 45°11' E 036°30'0 0.0
2017-Sep-19 20:09N 45°11' E 036°30'0 0.0
2017-Sep-19 19:57N 45°11' E 036°30'0 0.0
2017-Sep-19 19:03N 45°11' E 036°30'0 0.0
2017-Sep-19 18:36N 45°11' E 036°30'0 0.1
2017-Sep-19 18:30N 45°11' E 036°30'0 0.0
2017-Sep-19 17:57N 45°11' E 036°30'0 0.0
2017-Sep-19 16:33N 45°11' E 036°30'0 0.0
2017-Sep-19 16:24N 45°11' E 036°30'0 0.0
2017-Sep-19 15:57N 45°11' E 036°30'0 0.0
2017-Sep-19 15:30N 45°11' E 036°30'0 0.2
2017-Sep-19 15:00N 45°11' E 036°30'1 2.6
2017-Sep-19 14:30N 45°10' E 036°31'3 5.6
2017-Sep-19 13:59N 45°08' E 036°34'0 0.0
2017-Sep-19 11:47N 45°08' E 036°34'0 0.0
2017-Sep-19 11:29N 45°08' E 036°34'6 0.3
2017-Sep-18 15:01N 45°12' E 036°28'0 7.2
2017-Sep-18 15:00N 45°12' E 036°28'3 6.9
2017-Sep-18 14:30N 45°15' E 036°28'3 6.3
2017-Sep-18 14:00N 45°18' E 036°29'4 7.2
2017-Sep-18 13:30N 45°20' E 036°34'4 7.1
2017-Sep-18 13:00N 45°21' E 036°39'3 6.9
2017-Sep-18 12:30N 45°24' E 036°40'2 4.8
2017-Sep-18 12:00N 45°27' E 036°40'3 2.0
2017-Sep-18 10:18N 45°29' E 036°36'0 0.1
2017-Sep-18 07:19N 45°29' E 036°37'2 7.0
2017-Sep-18 07:00N 45°31' E 036°39'4 7.3
2017-Sep-18 06:30N 45°33' E 036°42'11 7.3
2017-Sep-18 05:02N 45°42' E 036°51'0 7.4
2017-Sep-18 05:00N 45°42' E 036°51'12 7.4
2017-Sep-18 03:26N 45°53' E 036°57'3 7.5
2017-Sep-18 03:00N 45°56' E 036°59'  
Track history (hours):
 
Tides and Currents Weather Stations Pressure Air Temp Water Temp Dewpoint Dewpoint Depression Visibility Wind Speed Wind Dir Waves Ship Positions

Sv.knyaz Vladimir

Last reported at 2017-Sep-25 12:23 UTC. Time now 2017-Sep-26 16:45 UTC.
Position N 45°29' E 036°37'.

Length 128 m; draft 3.7 m.

Type: Cargo ship. MMSI: 273350360.

Date/timePositionNaut miles runAvg speedWind from/ knotsBaromVisibWave heightAir tempDewpointWater temp
2017-Sep-25 12:23N 45°29' E 036°37'2 4.6
2017-Sep-25 12:00N 45°30' E 036°39'4 7.3
2017-Sep-25 11:27N 45°33' E 036°42'3 7.5
2017-Sep-25 11:00N 45°36' E 036°46'  
2017-Sep-20 02:02N 45°33' E 036°48'0 6.7
2017-Sep-20 01:59N 45°33' E 036°48'4 6.5
2017-Sep-20 01:26N 45°30' E 036°44'3 6.7
2017-Sep-20 01:00N 45°28' E 036°42'3 7.0
2017-Sep-20 00:30N 45°24' E 036°41'3 7.0
2017-Sep-20 00:00N 45°21' E 036°39'3 7.0
2017-Sep-19 23:30N 45°20' E 036°34'4 7.3
2017-Sep-19 23:00N 45°18' E 036°30'5 5.7
2017-Sep-19 22:09N 45°13' E 036°29'1 5.7
2017-Sep-19 22:00N 45°13' E 036°29'2 4.3
2017-Sep-19 21:31N 45°11' E 036°30'0 0.2
2017-Sep-19 20:57N 45°11' E 036°30'0 0.0
2017-Sep-19 20:09N 45°11' E 036°30'0 0.0
2017-Sep-19 19:57N 45°11' E 036°30'0 0.0
2017-Sep-19 19:03N 45°11' E 036°30'0 0.0
2017-Sep-19 18:36N 45°11' E 036°30'0 0.1
2017-Sep-19 18:30N 45°11' E 036°30'0 0.0
2017-Sep-19 17:57N 45°11' E 036°30'0 0.0
2017-Sep-19 16:33N 45°11' E 036°30'0 0.0
2017-Sep-19 16:24N 45°11' E 036°30'0 0.0
2017-Sep-19 15:57N 45°11' E 036°30'0 0.0
2017-Sep-19 15:30N 45°11' E 036°30'0 0.2
2017-Sep-19 15:00N 45°11' E 036°30'1 2.6
2017-Sep-19 14:30N 45°10' E 036°31'3 5.6
2017-Sep-19 13:59N 45°08' E 036°34'0 0.0
2017-Sep-19 11:47N 45°08' E 036°34'0 0.0
2017-Sep-19 11:29N 45°08' E 036°34'6 0.3
2017-Sep-18 15:01N 45°12' E 036°28'0 7.2
2017-Sep-18 15:00N 45°12' E 036°28'3 6.9
2017-Sep-18 14:30N 45°15' E 036°28'3 6.3
2017-Sep-18 14:00N 45°18' E 036°29'4 7.2
2017-Sep-18 13:30N 45°20' E 036°34'4 7.1
2017-Sep-18 13:00N 45°21' E 036°39'3 6.9
2017-Sep-18 12:30N 45°24' E 036°40'2 4.8
2017-Sep-18 12:00N 45°27' E 036°40'3 2.0
2017-Sep-18 10:18N 45°29' E 036°36'0 0.1
2017-Sep-18 07:19N 45°29' E 036°37'2 7.0
2017-Sep-18 07:00N 45°31' E 036°39'4 7.3
2017-Sep-18 06:30N 45°33' E 036°42'11 7.3
2017-Sep-18 05:02N 45°42' E 036°51'0 7.4
2017-Sep-18 05:00N 45°42' E 036°51'12 7.4
2017-Sep-18 03:26N 45°53' E 036°57'3 7.5
2017-Sep-18 03:00N 45°56' E 036°59'  

Dump ship's entire track history